Time;durP1;ratioP1;P1;durP2;ratioP2;P2;SDS_P1;SDS_P2;PMS_P1;PMS_P2;Temp;Humidity;BMP_temperature;BMP_pressure;BME280_temperature;BME280_humidity;BME280_pressure;Samples;Min_cycle;Max_cycle;Signal;HPM_P1;HPM_P2
2023/02/16 00:00:49;;;;;;;58.88;28.38;;;;;;;5.74;100.00;102313.34;2597731;36;20035;-56
2023/02/16 00:03:20;;;;;;;61.03;28.63;;;;;;;5.72;100.00;102307.22;2598332;36;20041;-55
2023/02/16 00:05:52;;;;;;;66.18;29.65;;;;;;;5.78;100.00;102310.47;2600265;36;20023;-56
2023/02/16 00:08:21;;;;;;;56.88;30.08;;;;;;;5.73;100.00;102300.97;2604288;36;20415;-55
2023/02/16 00:13:51;;;;;;;64.40;29.92;;;;;;;5.67;100.00;102312.78;2604204;36;20041;-54
2023/02/16 00:16:24;;;;;;;58.10;29.55;;;;;;;5.58;100.00;102308.72;2602439;36;20045;-55
2023/02/16 00:18:56;;;;;;;60.25;29.05;;;;;;;5.56;100.00;102307.91;2602886;36;20035;-58
2023/02/16 00:21:24;;;;;;;59.63;29.02;;;;;;;5.63;100.00;102304.97;2605552;36;20049;-56
2023/02/16 00:23:53;;;;;;;68.90;30.50;;;;;;;5.66;100.00;102310.19;2605508;36;20479;-54
2023/02/16 00:26:24;;;;;;;64.95;30.13;;;;;;;5.60;100.00;102306.84;2598598;31;20045;-55
2023/02/16 00:28:57;;;;;;;65.97;30.85;;;;;;;5.53;100.00;102304.50;2612673;31;20034;-55
2023/02/16 00:31:29;;;;;;;56.03;30.33;;;;;;;5.57;100.00;102298.97;2598666;36;20042;-53
2023/02/16 00:33:58;;;;;;;63.05;30.08;;;;;;;5.61;100.00;102303.25;2601980;36;20034;-55
2023/02/16 00:36:27;;;;;;;61.90;31.33;;;;;;;5.59;100.00;102307.78;2602380;36;20042;-58
2023/02/16 00:39:03;;;;;;;60.33;30.55;;;;;;;5.68;100.00;102302.97;2597728;36;20547;-53
2023/02/16 00:44:17;;;;;;;59.58;30.00;;;;;;;5.50;100.00;102294.81;2600927;36;20050;-55
2023/02/16 00:46:49;;;;;;;60.25;29.83;;;;;;;5.54;100.00;102293.75;2602502;36;20034;-55
2023/02/16 00:49:19;;;;;;;59.05;32.13;;;;;;;5.43;100.00;102294.25;2598601;36;20038;-54
2023/02/16 00:51:47;;;;;;;65.95;31.83;;;;;;;5.48;100.00;102287.81;2596907;36;20031;-54
2023/02/16 00:54:18;;;;;;;60.53;29.90;;;;;;;5.54;100.00;102296.44;2598169;31;20133;-57
2023/02/16 00:56:47;;;;;;;58.60;31.20;;;;;;;5.57;100.00;102296.28;2598744;36;20045;-53
2023/02/16 00:59:19;;;;;;;67.03;32.08;;;;;;;5.50;100.00;102297.50;2599972;36;20038;-53
2023/02/16 01:01:52;;;;;;;58.40;30.27;;;;;;;5.46;100.00;102293.22;2599924;36;20069;-53
2023/02/16 01:04:23;;;;;;;64.40;32.25;;;;;;;5.42;100.00;102289.81;2602232;36;20652;-54
2023/02/16 01:12:18;;;;;;;64.20;33.70;;;;;;;5.31;100.00;102285.91;2601912;31;20049;-53
2023/02/16 01:14:48;;;;;;;62.47;31.55;;;;;;;5.24;100.00;102280.81;2600001;36;20061;-54
2023/02/16 01:17:19;;;;;;;69.68;33.03;;;;;;;5.29;100.00;102282.44;2600839;36;20034;-56
2023/02/16 01:19:48;;;;;;;66.82;34.00;;;;;;;5.22;100.00;102279.16;2602249;36;20550;-56
2023/02/16 01:22:16;;;;;;;74.18;32.55;;;;;;;5.21;100.00;102280.97;2602836;31;20038;-56
2023/02/16 01:24:45;;;;;;;64.43;31.27;;;;;;;5.16;100.00;102284.75;2601227;36;20037;-54
2023/02/16 01:27:16;;;;;;;67.35;32.90;;;;;;;5.24;100.00;102288.84;2598894;36;21238;-54
2023/02/16 01:29:44;;;;;;;65.78;32.47;;;;;;;5.17;100.00;102287.38;2601344;31;20057;-55
2023/02/16 01:32:14;;;;;;;71.05;33.80;;;;;;;5.17;100.00;102282.03;2602797;36;20038;-56
2023/02/16 01:34:47;;;;;;;71.00;32.25;;;;;;;5.16;100.00;102280.28;2602467;36;20045;-55
2023/02/16 01:37:18;;;;;;;72.57;34.53;;;;;;;5.11;100.00;102273.41;2598233;36;20057;-56
2023/02/16 01:39:46;;;;;;;67.97;31.77;;;;;;;5.19;100.00;102273.94;2601575;36;20451;-57
2023/02/16 01:42:26;;;;;;;70.07;34.00;;;;;;;5.15;100.00;102278.53;2603706;36;20490;-56
2023/02/16 01:44:59;;;;;;;;;;;;;;;5.01;100.00;102264.94;2602729;36;20038;-58
2023/02/16 01:47:41;;;;;;;65.15;33.00;;;;;;;5.08;100.00;102264.59;2603479;36;20937;-56
2023/02/16 01:50:20;;;;;;;68.47;33.88;;;;;;;4.96;100.00;102256.25;2604235;31;20038;-57
2023/02/16 01:52:54;;;;;;;67.13;33.30;;;;;;;5.01;100.00;102264.94;2602660;31;20030;-54
2023/02/16 01:55:27;;;;;;;66.25;32.05;;;;;;;5.05;100.00;102277.19;2596193;36;20046;-54
2023/02/16 01:58:01;;;;;;;75.72;34.88;;;;;;;5.04;100.00;102270.13;2601590;36;20041;-57
2023/02/16 02:00:35;;;;;;;69.35;33.35;;;;;;;5.13;100.00;102275.06;2597470;36;20611;-53
2023/02/16 02:05:50;;;;;;;71.15;33.47;;;;;;;5.20;100.00;102255.19;2595255;36;21396;-53
2023/02/16 02:08:27;;;;;;;73.10;33.55;;;;;;;5.22;100.00;102255.97;2602014;36;20766;-54
2023/02/16 02:11:09;;;;;;;72.28;33.88;;;;;;;5.30;100.00;102257.47;2597927;36;20034;-57
2023/02/16 02:13:42;;;;;;;66.60;33.65;;;;;;;5.35;100.00;102255.47;2602878;36;20046;-55
2023/02/16 02:16:12;;;;;;;71.00;34.58;;;;;;;5.21;100.00;102254.28;2602448;31;20038;-54
2023/02/16 02:18:40;;;;;;;71.88;33.40;;;;;;;5.20;100.00;102247.19;2602188;36;20031;-54
2023/02/16 02:24:37;;;;;;;65.10;32.42;;;;;;;5.20;100.00;102238.31;2603403;36;20030;-51
2023/02/16 02:27:16;;;;;;;69.32;35.95;;;;;;;5.23;100.00;102233.72;2599969;36;20042;-55
2023/02/16 02:29:59;;;;;;;;;;;;;;;5.38;100.00;102231.28;2599063;36;20964;-55
2023/02/16 02:32:34;;;;;;;65.80;33.30;;;;;;;5.37;100.00;102234.88;2603880;31;19947;-56
2023/02/16 02:35:16;;;;;;;67.55;33.58;;;;;;;5.50;100.00;102240.56;2602711;36;20407;-54
2023/02/16 02:37:53;;;;;;;69.03;34.15;;;;;;;5.55;100.00;102230.53;2596439;36;20636;-55
2023/02/16 02:40:33;;;;;;;66.30;33.90;;;;;;;5.52;100.00;102223.53;2601699;36;20058;-56
2023/02/16 02:43:12;;;;;;;68.85;33.97;;;;;;;5.48;100.00;102216.59;2604965;36;20041;-53
2023/02/16 02:45:45;;;;;;;62.67;32.75;;;;;;;5.43;100.00;102221.25;2598798;31;20038;-52
2023/02/16 02:48:14;;;;;;;68.22;33.70;;;;;;;5.60;100.00;102213.34;2600723;31;20042;-55
2023/02/16 02:51:27;;;;;;;68.15;34.35;;;;;;;5.51;100.00;102211.13;2595652;36;20432;-55
2023/02/16 02:53:41;;;;;;;69.03;34.90;;;;;;;5.51;100.00;102211.13;2600519;36;20077;-58
2023/02/16 03:01:44;;;;;;;68.43;33.42;;;;;;;5.63;100.00;102208.81;2604523;36;20138;-54
2023/02/16 03:04:17;;;;;;;71.85;34.20;;;;;;;5.49;100.00;102212.09;2598071;36;20038;-58
2023/02/16 03:06:49;;;;;;;64.10;33.58;;;;;;;5.50;100.00;102203.16;2602613;36;20038;-54
2023/02/16 03:09:20;;;;;;;62.25;33.22;;;;;;;5.55;100.00;102203.81;2604066;36;20408;-58
2023/02/16 03:14:36;;;;;;;69.22;33.63;;;;;;;5.57;100.00;102205.47;2602993;36;20662;-55
2023/02/16 03:30:45;;;;;;;64.65;32.47;;;;;;;5.67;100.00;102189.91;2606508;31;20118;-54
2023/02/16 03:33:14;;;;;;;68.13;32.97;;;;;;;5.72;100.00;102197.69;2605248;36;20444;-54
2023/02/16 03:35:44;;;;;;;68.32;33.45;;;;;;;5.76;100.00;102184.13;2605067;36;20038;-56
2023/02/16 03:38:12;;;;;;;66.82;32.80;;;;;;;5.75;100.00;102192.22;2600874;31;20038;-54
2023/02/16 03:40:42;;;;;;;63.35;33.80;;;;;;;5.72;100.00;102187.03;2603735;36;21885;-53
2023/02/16 03:43:11;;;;;;;62.97;33.25;;;;;;;5.82;100.00;102196.34;2602210;36;20037;-55
2023/02/16 03:45:45;;;;;;;62.13;32.67;;;;;;;5.80;100.00;102195.56;2602024;36;20257;-54
2023/02/16 03:48:16;;;;;;;64.13;32.80;;;;;;;5.78;100.00;102192.91;2603201;36;20049;-54
2023/02/16 03:50:45;;;;;;;60.22;31.95;;;;;;;5.92;100.00;102200.31;2601616;36;20084;-53
2023/02/16 03:53:13;;;;;;;62.43;32.57;;;;;;;5.96;100.00;102196.56;2598112;36;20040;-54
2023/02/16 03:55:43;;;;;;;62.67;33.80;;;;;;;5.89;100.00;102197.78;2599027;36;20291;-56
2023/02/16 03:58:14;;;;;;;64.30;32.80;;;;;;;6.00;100.00;102194.63;2604738;36;20042;-56
2023/02/16 04:00:45;;;;;;;64.00;33.13;;;;;;;6.12;100.00;102194.03;2601308;36;20046;-56
2023/02/16 04:03:15;;;;;;;61.88;32.97;;;;;;;6.10;100.00;102205.75;2601563;36;20056;-56
2023/02/16 04:05:44;;;;;;;62.28;32.95;;;;;;;6.19;100.00;102191.91;2602284;36;20073;-54
2023/02/16 04:08:12;;;;;;;64.32;32.28;;;;;;;6.06;100.00;102190.78;2600313;36;20026;-56
2023/02/16 04:10:41;;;;;;;60.72;30.80;;;;;;;6.05;100.00;102194.41;2603643;36;20045;-56
2023/02/16 04:13:07;;;;;;;61.35;30.85;;;;;;;6.03;100.00;102190.94;2607110;36;20046;-56
2023/02/16 04:15:36;;;;;;;65.93;32.78;;;;;;;6.12;100.00;102185.13;2602774;36;20035;-51
2023/02/16 04:18:07;;;;;;;62.57;32.80;;;;;;;6.12;100.00;102193.16;2597454;31;20042;-56
2023/02/16 04:20:37;;;;;;;64.00;32.17;;;;;;;6.16;100.00;102197.41;2619016;36;20298;-51
2023/02/16 04:23:05;;;;;;;63.42;32.15;;;;;;;6.28;100.00;102204.84;2599840;36;20057;-56
2023/02/16 04:25:34;;;;;;;60.42;33.55;;;;;;;6.17;100.00;102196.50;2599301;36;20463;-53
2023/02/16 04:28:02;;;;;;;59.50;31.13;;;;;;;6.07;100.00;102187.19;2615994;36;20559;-54
2023/02/16 04:30:33;;;;;;;64.00;33.05;;;;;;;6.17;100.00;102193.81;2599718;36;20455;-53
2023/02/16 04:33:01;;;;;;;58.42;31.23;;;;;;;6.08;100.00;102194.25;2604488;36;20125;-55
2023/02/16 04:35:32;;;;;;;65.63;32.73;;;;;;;6.05;100.00;102195.28;2603828;36;20061;-51
2023/02/16 04:38:00;;;;;;;59.85;32.25;;;;;;;6.20;100.00;102191.00;2600746;31;20038;-55
2023/02/16 04:40:29;;;;;;;61.17;31.85;;;;;;;6.27;100.00;102183.53;2603123;31;20046;-54
2023/02/16 04:42:57;;;;;;;62.83;32.03;;;;;;;6.24;100.00;102187.22;2601501;36;20034;-57
2023/02/16 04:45:25;;;;;;;66.03;33.60;;;;;;;6.26;100.00;102185.34;2608541;36;20420;-54
2023/02/16 04:47:54;;;;;;;61.85;30.40;;;;;;;6.19;100.00;102191.91;2615149;36;20547;-55
2023/02/16 04:50:22;;;;;;;65.20;33.05;;;;;;;6.18;100.00;102184.84;2615130;36;20046;-57
2023/02/16 04:52:53;;;;;;;66.45;34.20;;;;;;;6.20;100.00;102190.09;2616758;36;20026;-57
2023/02/16 04:55:21;;;;;;;57.80;30.52;;;;;;;6.12;100.00;102186.03;2616184;36;20034;-53
2023/02/16 04:57:50;;;;;;;58.83;31.90;;;;;;;6.18;100.00;102184.84;2615472;36;20050;-55
2023/02/16 05:00:19;;;;;;;68.88;34.40;;;;;;;6.19;100.00;102175.88;2616158;36;20039;-57
2023/02/16 05:02:47;;;;;;;55.85;29.13;;;;;;;6.35;100.00;102176.00;2615935;36;20034;-55
2023/02/16 05:05:15;;;;;;;62.15;30.60;;;;;;;6.38;100.00;102175.00;2615290;36;20037;-55
2023/02/16 05:07:44;;;;;;;61.93;30.43;;;;;;;6.29;100.00;102176.31;2615758;36;20045;-56
2023/02/16 05:10:15;;;;;;;56.22;29.98;;;;;;;6.25;100.00;102170.22;2615742;36;20029;-55
2023/02/16 05:15:24;;;;;;;64.60;32.97;;;;;;;6.18;100.00;102173.28;2616019;36;20045;-55
2023/02/16 05:17:52;;;;;;;59.42;31.13;;;;;;;6.22;100.00;102182.91;2616239;36;20527;-53
2023/02/16 05:21:28;;;;;;;61.42;33.58;;;;;;;6.25;100.00;102175.56;2616187;36;20444;-53
2023/02/16 05:23:09;;;;;;;62.63;32.75;;;;;;;6.25;100.00;102166.69;2616134;36;20065;-54
2023/02/16 05:25:40;;;;;;;63.58;31.02;;;;;;;6.45;100.00;102176.41;2615823;36;20038;-55
2023/02/16 05:28:08;;;;;;;59.08;30.42;;;;;;;6.42;100.00;102163.16;2616253;36;20998;-53
2023/02/16 05:30:36;;;;;;;58.40;31.10;;;;;;;6.40;100.00;102162.41;2616946;36;20437;-54
2023/02/16 05:33:05;;;;;;;64.95;34.33;;;;;;;6.36;100.00;102160.81;2616115;31;20038;-57
2023/02/16 05:35:34;;;;;;;57.47;31.43;;;;;;;6.29;100.00;102161.13;2615971;36;20039;-55
2023/02/16 05:38:03;;;;;;;66.13;34.05;;;;;;;6.21;100.00;102157.94;2616543;36;20045;-54
2023/02/16 05:40:31;;;;;;;67.55;33.55;;;;;;;6.24;100.00;102141.78;2615298;31;20033;-53
2023/02/16 05:43:02;;;;;;;63.92;32.00;;;;;;;6.37;100.00;102157.19;2617183;36;20026;-54
2023/02/16 05:45:30;;;;;;;56.47;31.05;;;;;;;6.18;100.00;102146.56;2615418;31;20034;-56
2023/02/16 05:47:59;;;;;;;61.67;33.45;;;;;;;6.16;100.00;102145.78;2616205;31;20431;-53
2023/02/16 05:50:27;;;;;;;64.28;32.22;;;;;;;6.30;100.00;102140.59;2614537;36;20030;-55
2023/02/16 05:52:55;;;;;;;67.88;32.53;;;;;;;6.30;100.00;102152.16;2615397;36;20035;-54
2023/02/16 05:55:24;;;;;;;60.58;31.48;;;;;;;6.32;100.00;102157.44;2615949;36;20067;-55
2023/02/16 05:57:52;;;;;;;62.72;33.03;;;;;;;6.24;100.00;102163.16;2614544;36;20038;-55
2023/02/16 06:00:23;;;;;;;57.92;30.67;;;;;;;6.16;100.00;102165.34;2614428;36;20041;-55
2023/02/16 06:02:51;;;;;;;61.58;34.20;;;;;;;6.19;100.00;102159.00;2615916;36;20026;-57
2023/02/16 06:05:27;;;;;;;68.15;34.13;;;;;;;6.16;100.00;102160.00;2615081;39;20428;-52
2023/02/16 06:07:55;;;;;;;61.47;33.15;;;;;;;6.18;100.00;102168.78;2615498;36;20065;-53
2023/02/16 06:10:23;;;;;;;70.10;34.30;;;;;;;6.17;100.00;102168.88;2615734;36;20034;-54
2023/02/16 06:12:51;;;;;;;66.00;34.53;;;;;;;6.24;100.00;102171.19;2616143;36;20042;-56
2023/02/16 06:15:22;;;;;;;61.95;33.72;;;;;;;6.23;100.00;102177.47;2616659;36;20439;-57
2023/02/16 06:17:51;;;;;;;65.65;34.38;;;;;;;6.34;100.00;102182.28;2616329;36;20542;-55
2023/02/16 06:20:20;;;;;;;61.88;32.67;;;;;;;6.31;100.00;102180.63;2616089;31;20035;-54
2023/02/16 06:22:48;;;;;;;64.85;32.60;;;;;;;6.28;100.00;102170.06;2616137;36;20547;-55
2023/02/16 06:25:19;;;;;;;60.20;32.65;;;;;;;6.22;100.00;102170.38;2616051;36;20038;-55
2023/02/16 06:27:48;;;;;;;59.90;32.80;;;;;;;6.13;100.00;102176.19;2615838;36;20089;-53
2023/02/16 06:30:18;;;;;;;66.00;35.63;;;;;;;6.18;100.00;102175.97;2614333;36;20034;-53
2023/02/16 06:32:48;;;;;;;65.20;32.35;;;;;;;6.19;100.00;102167.00;2615282;36;20043;-52
2023/02/16 06:35:17;;;;;;;73.30;34.60;;;;;;;6.12;100.00;102166.44;2615141;36;21198;-52
2023/02/16 06:37:46;;;;;;;65.45;33.83;;;;;;;6.12;100.00;102180.69;2616044;31;20030;-55
2023/02/16 06:40:16;;;;;;;68.68;35.25;;;;;;;6.19;100.00;102181.22;2615316;36;20038;-55
2023/02/16 06:42:45;;;;;;;63.60;34.38;;;;;;;6.29;100.00;102181.66;2615895;36;20045;-59
2023/02/16 06:45:13;;;;;;;62.50;33.13;;;;;;;6.37;100.00;102182.13;2605984;36;20034;-57
2023/02/16 06:47:41;;;;;;;67.43;35.20;;;;;;;6.31;100.00;102185.97;2599235;31;20069;-57
2023/02/16 06:50:16;;;;;;;62.05;33.00;;;;;;;6.18;100.00;102176.81;2600468;36;20038;-54
2023/02/16 06:52:44;;;;;;;70.95;35.17;;;;;;;6.15;100.00;102174.28;2599833;36;21207;-56
2023/02/16 06:55:13;;;;;;;68.25;34.85;;;;;;;6.20;100.00;102176.75;2602021;36;20037;-54
2023/02/16 06:57:41;;;;;;;61.20;33.53;;;;;;;6.25;100.00;102183.59;2601988;36;20146;-59
2023/02/16 07:00:10;;;;;;;71.50;35.85;;;;;;;6.14;100.00;102177.94;2601929;31;20038;-54
2023/02/16 07:02:39;;;;;;;64.70;34.10;;;;;;;6.18;100.00;102181.31;2603799;36;20146;-55
2023/02/16 07:05:08;;;;;;;72.63;35.88;;;;;;;6.29;100.00;102170.97;2605687;36;20034;-55
2023/02/16 07:07:38;;;;;;;70.20;35.00;;;;;;;6.36;100.00;102182.19;2606899;31;20467;-56
2023/02/16 07:10:09;;;;;;;69.57;34.42;;;;;;;6.45;100.00;102179.09;2596876;36;20042;-55
2023/02/16 07:12:37;;;;;;;60.28;34.85;;;;;;;6.31;100.00;102179.75;2605307;36;20626;-55
2023/02/16 07:15:06;;;;;;;68.17;33.70;;;;;;;6.51;100.00;102183.25;2599165;36;20203;-54
2023/02/16 07:17:34;;;;;;;69.00;34.92;;;;;;;6.51;100.00;102180.56;2600172;36;20042;-55
2023/02/16 07:20:03;;;;;;;73.22;34.95;;;;;;;6.34;100.00;102186.78;2602832;36;20042;-54
2023/02/16 07:22:31;;;;;;;70.93;35.58;;;;;;;6.45;100.00;102196.00;2600269;36;20035;-57
2023/02/16 07:25:02;;;;;;;73.28;35.42;;;;;;;6.51;100.00;102192.16;2605537;36;20770;-55
2023/02/16 07:27:31;;;;;;;69.72;34.00;;;;;;;6.44;100.00;102196.06;2601687;36;20518;-55
2023/02/16 07:29:59;;;;;;;58.30;32.85;;;;;;;6.57;100.00;102202.53;2604344;36;20030;-53
2023/02/16 07:32:28;;;;;;;72.43;35.55;;;;;;;6.62;100.00;102199.63;2602916;31;20049;-58
2023/02/16 07:34:56;;;;;;;64.35;34.78;;;;;;;6.60;100.00;102197.03;2606024;36;20057;-56
2023/02/16 07:37:25;;;;;;;71.53;34.70;;;;;;;6.54;100.00;102196.50;2606374;36;20076;-53
2023/02/16 07:39:54;;;;;;;65.13;35.03;;;;;;;6.61;100.00;102196.09;2604692;36;20634;-54
2023/02/16 07:42:25;;;;;;;75.00;34.22;;;;;;;6.77;100.00;102192.63;2606177;31;20038;-57
2023/02/16 07:44:53;;;;;;;69.68;35.65;;;;;;;6.79;100.00;102190.75;2607187;36;20034;-54
2023/02/16 07:47:23;;;;;;;74.65;35.95;;;;;;;6.84;100.00;102194.03;2603672;36;20563;-55
2023/02/16 07:49:52;;;;;;;64.85;35.58;;;;;;;6.84;100.00;102200.25;2605175;36;20605;-57
2023/02/16 07:52:20;;;;;;;68.55;35.72;;;;;;;6.75;100.00;102199.88;2603486;36;20046;-52
2023/02/16 07:54:48;;;;;;;68.25;34.70;;;;;;;6.71;100.00;102204.50;2601206;36;20042;-57
2023/02/16 07:57:17;;;;;;;68.88;36.45;;;;;;;6.72;100.00;102205.38;2598478;36;20727;-55
2023/02/16 07:59:48;;;;;;;65.85;34.47;;;;;;;6.82;100.00;102201.31;2602099;36;20030;-59
2023/02/16 08:02:18;;;;;;;68.25;33.42;;;;;;;6.88;100.00;102205.47;2597606;36;20027;-56
2023/02/16 08:04:47;;;;;;;63.67;33.70;;;;;;;6.93;100.00;102212.28;2600719;31;20563;-55
2023/02/16 08:07:19;;;;;;;66.88;36.22;;;;;;;6.98;100.00;102217.44;2604610;36;20038;-56
2023/02/16 08:09:47;;;;;;;65.72;34.55;;;;;;;7.01;100.00;102215.47;2600516;36;20605;-52
2023/02/16 08:12:17;;;;;;;65.60;33.30;;;;;;;6.82;100.00;102225.38;2600552;31;20042;-55
2023/02/16 08:14:48;;;;;;;68.72;35.45;;;;;;;6.89;100.00;102229.47;2597547;36;20586;-56
2023/02/16 08:17:16;;;;;;;64.55;33.53;;;;;;;6.92;100.00;102229.31;2600604;36;20047;-56
2023/02/16 08:19:45;;;;;;;70.45;36.33;;;;;;;7.06;100.00;102227.75;2597085;36;20305;-55
2023/02/16 08:22:13;;;;;;;66.38;34.45;;;;;;;7.10;100.00;102223.97;2600981;36;20031;-59
2023/02/16 08:24:47;;;;;;;66.30;34.25;;;;;;;6.96;100.00;102222.88;2603454;36;20038;-53
2023/02/16 08:27:16;;;;;;;68.55;33.65;;;;;;;6.96;100.00;102235.38;2599174;36;20068;-54
2023/02/16 08:29:44;;;;;;;63.50;33.97;;;;;;;6.96;100.00;102233.59;2603303;36;20887;-52
2023/02/16 08:32:18;;;;;;;68.83;33.90;;;;;;;6.99;100.00;102232.53;2599424;36;20034;-55
2023/02/16 08:34:47;;;;;;;68.82;36.55;;;;;;;6.96;100.00;102233.59;2603226;31;20303;-53
2023/02/16 08:37:16;;;;;;;69.80;35.22;;;;;;;6.89;100.00;102229.47;2602522;36;20038;-55
2023/02/16 08:39:45;;;;;;;71.00;35.30;;;;;;;6.95;100.00;102223.81;2602060;36;20041;-56
2023/02/16 08:42:14;;;;;;;69.22;35.85;;;;;;;7.05;100.00;102239.38;2602024;36;20541;-56
2023/02/16 08:44:43;;;;;;;60.33;33.85;;;;;;;7.07;100.00;102242.88;2605548;36;20038;-55
2023/02/16 08:47:12;;;;;;;67.18;36.33;;;;;;;6.95;100.00;102234.50;2601327;36;20051;-54
2023/02/16 08:49:43;;;;;;;69.03;35.35;;;;;;;7.10;100.00;102234.69;2602948;36;20065;-56
2023/02/16 08:52:13;;;;;;;68.57;34.10;;;;;;;7.07;100.00;102238.38;2600658;36;20041;-54
2023/02/16 08:54:41;;;;;;;65.07;33.92;;;;;;;7.15;100.00;102246.00;2606210;36;20073;-53
2023/02/16 08:57:13;;;;;;;66.78;34.72;;;;;;;7.19;100.00;102248.44;2604973;36;20042;-55
2023/02/16 08:59:41;;;;;;;61.20;34.17;;;;;;;7.25;100.00;102239.22;2603216;36;20122;-54
2023/02/16 09:02:12;;;;;;;72.18;36.03;;;;;;;7.24;100.00;102242.81;2600674;36;20031;-57
2023/02/16 09:04:43;;;;;;;62.22;33.60;;;;;;;7.25;100.00;102241.03;2604200;36;20538;-58
2023/02/16 09:07:12;;;;;;;64.13;34.42;;;;;;;7.07;100.00;102242.88;2599245;31;20050;-54
2023/02/16 09:09:40;;;;;;;;;;;;;;;7.17;100.00;102254.84;2600246;36;20038;-54
2023/02/16 09:12:12;;;;;;;66.40;34.38;;;;;;;7.10;100.00;102248.06;2603417;36;19955;-56
2023/02/16 09:14:40;;;;;;;62.95;34.22;;;;;;;7.27;100.00;102248.03;2604510;36;20061;-58
2023/02/16 09:17:09;;;;;;;72.60;36.60;;;;;;;7.27;100.00;102248.03;2599232;36;20038;-56
2023/02/16 09:19:37;;;;;;;66.30;34.10;;;;;;;7.13;100.00;102250.56;2603443;36;20045;-55
2023/02/16 09:22:08;;;;;;;72.20;37.47;;;;;;;7.26;100.00;102254.34;2602528;36;20042;-55
2023/02/16 09:24:38;;;;;;;68.95;36.15;;;;;;;7.13;100.00;102264.81;2600365;36;20034;-59
2023/02/16 09:27:06;;;;;;;64.50;33.90;;;;;;;7.08;100.00;102257.97;2604510;31;20556;-58
2023/02/16 09:29:35;;;;;;;70.38;34.25;;;;;;;7.19;100.00;102253.78;2597432;36;20661;-56
2023/02/16 09:32:04;;;;;;;74.33;37.03;;;;;;;7.26;100.00;102251.66;2602504;31;20065;-55
2023/02/16 09:34:32;;;;;;;69.28;35.33;;;;;;;7.24;100.00;102250.88;2596776;36;20566;-55
2023/02/16 09:37:01;;;;;;;71.20;36.85;;;;;;;7.11;100.00;102245.31;2600427;31;20038;-56
2023/02/16 09:39:32;;;;;;;73.38;36.38;;;;;;;7.10;100.00;102245.38;2601800;36;20038;-57
2023/02/16 09:42:12;;;;;;;78.10;37.67;;;;;;;6.93;100.00;102241.75;2598909;36;20034;-59
2023/02/16 09:44:53;;;;;;;72.70;38.47;;;;;;;7.03;100.00;102246.66;2603377;36;20065;-54
2023/02/16 09:47:28;;;;;;;77.60;39.85;;;;;;;6.98;100.00;102247.75;2604681;31;20527;-55
2023/02/16 09:49:58;;;;;;;79.85;39.13;;;;;;;7.05;100.00;102253.63;2601088;36;20423;-55
2023/02/16 09:52:36;;;;;;;84.88;41.35;;;;;;;7.04;100.00;102253.72;2595996;36;20026;-56
2023/02/16 09:55:09;;;;;;;88.63;41.08;;;;;;;7.17;100.00;102244.97;2602412;36;20563;-56
2023/02/16 09:57:47;;;;;;;83.47;42.80;;;;;;;7.11;100.00;102239.94;2597946;36;20034;-55
2023/02/16 10:00:28;;;;;;;83.30;40.53;;;;;;;7.09;100.00;102240.97;2604622;31;20183;-52
2023/02/16 10:03:06;;;;;;;86.55;40.45;;;;;;;7.08;100.00;102244.56;2602263;36;20039;-54
2023/02/16 10:05:46;;;;;;;83.50;40.47;;;;;;;7.12;100.00;102248.84;2599800;36;20057;-53
2023/02/16 10:08:26;;;;;;;92.15;44.05;;;;;;;7.21;100.00;102261.75;2604855;36;20065;-56
2023/02/16 10:11:05;;;;;;;87.85;41.58;;;;;;;7.21;100.00;102264.41;2600643;36;20743;-58
2023/02/16 10:13:42;;;;;;;82.15;42.03;;;;;;;7.27;100.00;102256.06;2603488;36;20038;-53
2023/02/16 10:16:24;;;;;;;87.38;41.40;;;;;;;7.28;100.00;102256.94;2617917;31;20042;-55
2023/02/16 10:18:55;;;;;;;87.10;44.53;;;;;;;7.14;100.00;102265.69;2603464;36;20038;-54
2023/02/16 10:21:30;;;;;;;85.13;40.90;;;;;;;7.10;100.00;102261.44;2602280;36;20042;-56
2023/02/16 10:24:03;;;;;;;88.63;43.33;;;;;;;6.97;100.00;102263.88;2603029;36;20045;-53
2023/02/16 10:26:39;;;;;;;89.63;44.25;;;;;;;7.14;100.00;102255.84;2595056;36;20062;-55
2023/02/16 10:29:09;;;;;;;95.38;45.05;;;;;;;7.35;100.00;102264.56;2603155;36;20285;-55
2023/02/16 10:31:43;;;;;;;92.03;45.58;;;;;;;7.42;100.00;102258.88;2599907;36;20555;-54
2023/02/16 10:34:21;;;;;;;92.00;45.15;;;;;;;7.37;100.00;102259.97;2616747;36;20034;-52
2023/02/16 10:37:08;;;;;;;91.63;47.15;;;;;;;7.57;100.00;102260.75;2598394;31;20412;-54
2023/02/16 10:39:42;;;;;;;95.95;46.25;;;;;;;7.70;100.00;102266.34;2598945;36;20096;-50
2023/02/16 10:42:23;;;;;;;98.40;46.78;;;;;;;7.51;100.00;102258.41;2600203;36;20045;-58
2023/02/16 10:44:58;;;;;;;92.80;44.80;;;;;;;7.64;100.00;102258.59;2609316;31;20031;-56
2023/02/16 10:47:34;;;;;;;93.88;46.13;;;;;;;7.81;100.00;102255.03;2616313;36;20439;-55
2023/02/16 10:50:02;;;;;;;91.75;46.80;;;;;;;7.81;100.00;102261.25;2615260;36;20389;-53
2023/02/16 10:52:36;;;;;;;89.50;44.40;;;;;;;8.00;100.00;102252.19;2614914;31;20042;-55
2023/02/16 10:55:04;;;;;;;105.05;45.65;;;;;;;7.98;100.00;102260.31;2614449;36;20049;-55
2023/02/16 10:57:36;;;;;;;85.68;45.17;;;;;;;8.23;100.00;102253.59;2614448;36;20042;-54
2023/02/16 11:00:09;;;;;;;84.78;45.05;;;;;;;8.06;100.00;102255.38;2614648;36;20039;-54
2023/02/16 11:02:40;;;;;;;85.55;44.38;;;;;;;8.11;100.00;102255.13;2615091;36;20530;-55
2023/02/16 11:05:31;;;;;;;91.30;45.13;;;;;;;7.98;100.00;102254.97;2614213;36;20038;-58
2023/02/16 11:08:02;;;;;;;91.35;42.88;;;;;;;7.87;100.00;102254.69;2614168;36;20142;-53
2023/02/16 11:10:40;;;;;;;87.68;45.22;;;;;;;7.93;100.00;102256.16;2614159;31;20031;-56
2023/02/16 11:13:26;;;;;;;88.80;43.50;;;;;;;7.87;100.00;102254.69;2614291;36;20043;-53
2023/02/16 11:15:57;;;;;;;82.85;42.33;;;;;;;7.94;100.00;102245.34;2614517;36;20439;-53
2023/02/16 11:18:41;;;;;;;90.05;43.70;;;;;;;8.20;100.00;102248.38;2614067;36;20038;-54
2023/02/16 11:21:11;;;;;;;88.50;44.88;;;;;;;8.33;100.00;102241.41;2614458;36;20034;-53
2023/02/16 11:23:41;;;;;;;92.03;45.85;;;;;;;8.24;100.00;102233.84;2614426;36;20035;-56
2023/02/16 11:26:24;;;;;;;90.35;44.97;;;;;;;8.41;100.00;102238.28;2612703;36;20567;-55
2023/02/16 11:28:55;;;;;;;90.63;44.55;;;;;;;8.55;100.00;102224.06;2614074;36;20126;-60
2023/02/16 11:31:31;;;;;;;90.20;43.75;;;;;;;8.63;100.00;102226.31;2614746;36;20515;-55
2023/02/16 11:34:03;;;;;;;81.35;41.75;;;;;;;8.65;100.00;102230.63;2614606;36;20030;-56
2023/02/16 11:36:35;;;;;;;84.40;41.13;;;;;;;8.66;100.00;102218.09;2615178;36;20026;-55
2023/02/16 11:39:08;;;;;;;84.13;45.83;;;;;;;8.46;100.00;102219.25;2615895;36;20050;-54
2023/02/16 11:41:37;;;;;;;80.57;43.13;;;;;;;8.68;100.00;102218.84;2615432;36;20027;-53
2023/02/16 11:44:27;;;;;;;89.05;43.95;;;;;;;8.75;100.00;102212.19;2615381;36;20034;-55
2023/02/16 11:46:57;;;;;;;81.63;43.53;;;;;;;8.79;100.00;102204.78;2615875;31;20551;-55
2023/02/16 11:49:33;;;;;;;82.75;43.13;;;;;;;8.85;100.00;102197.25;2614030;36;20038;-53
2023/02/16 11:52:03;;;;;;;81.75;41.50;;;;;;;8.88;100.00;102191.69;2615593;36;20042;-56
2023/02/16 11:54:31;;;;;;;84.63;39.67;;;;;;;8.97;100.00;102192.09;2615726;31;20022;-54
2023/02/16 11:57:05;;;;;;;81.85;44.60;;;;;;;9.12;100.00;102185.78;2615402;36;20030;-58
2023/02/16 11:59:39;;;;;;;82.97;41.65;;;;;;;9.06;100.00;102192.38;2614350;36;20114;-55
2023/02/16 12:02:42;;;;;;;77.57;41.58;;;;;;;9.20;100.00;102196.06;2614959;36;20149;-54
2023/02/16 12:05:28;;;;;;;86.75;43.25;;;;;;;9.05;100.00;102196.03;2613196;36;20045;-52
2023/02/16 12:08:17;;;;;;;83.88;41.45;;;;;;;9.30;100.00;102194.53;2615008;36;20043;-55
2023/02/16 12:11:01;;;;;;;78.00;42.63;;;;;;;9.04;100.00;102182.69;2614188;31;20058;-54